createdAt,value
2018-03-06T00:00:14.954Z,3.60
2018-03-06T00:02:43.423Z,3.70
2018-03-06T00:05:11.112Z,3.60
2018-03-06T00:07:38.784Z,3.60
2018-03-06T00:10:06.375Z,3.60
2018-03-06T00:12:34.050Z,3.60
2018-03-06T00:15:01.631Z,3.60
2018-03-06T00:17:30.022Z,3.50
2018-03-06T00:19:57.602Z,3.40
2018-03-06T00:22:25.993Z,3.50
2018-03-06T00:24:54.333Z,3.40
2018-03-06T00:27:21.958Z,3.40
2018-03-06T00:29:50.313Z,3.40
2018-03-06T00:32:17.893Z,3.30
2018-03-06T00:34:45.479Z,3.30
2018-03-06T00:37:13.115Z,3.30
2018-03-06T00:39:40.703Z,3.30
2018-03-06T00:42:08.292Z,3.30
2018-03-06T00:44:35.893Z,3.30
2018-03-06T00:47:04.241Z,3.20
2018-03-06T00:49:31.827Z,3.10
2018-03-06T00:51:59.431Z,3.20
2018-03-06T00:54:27.024Z,3.20
2018-03-06T00:56:54.634Z,3.20
2018-03-06T00:59:22.243Z,3.10
2018-03-06T01:01:50.595Z,3.10
2018-03-06T01:04:18.186Z,3.10
2018-03-06T01:06:45.798Z,3.10
2018-03-06T01:09:13.402Z,3.10
2018-03-06T01:11:41.802Z,3.10
2018-03-06T01:14:09.411Z,3.00
2018-03-06T01:16:37.819Z,3.00
2018-03-06T01:19:06.180Z,3.00
2018-03-06T01:21:34.538Z,2.90
2018-03-06T01:24:02.149Z,2.90
2018-03-06T01:26:30.481Z,2.80
2018-03-06T01:28:58.142Z,2.80
2018-03-06T01:31:26.828Z,2.80
2018-03-06T01:33:55.251Z,2.70
2018-03-06T01:36:22.838Z,2.60
2018-03-06T01:38:50.414Z,2.60
2018-03-06T01:41:18.007Z,2.60
2018-03-06T01:43:45.951Z,2.60
2018-03-06T01:46:13.567Z,2.50
2018-03-06T01:48:41.150Z,2.50
2018-03-06T01:51:09.509Z,2.40
2018-03-06T01:53:37.277Z,2.40
2018-03-06T01:56:04.856Z,2.40
2018-03-06T01:58:32.458Z,2.40
2018-03-06T02:01:00.077Z,2.30
2018-03-06T02:03:27.686Z,2.30
2018-03-06T02:05:56.015Z,2.30
2018-03-06T02:08:23.604Z,2.30
2018-03-06T02:10:51.153Z,2.20
2018-03-06T02:13:18.751Z,2.10
2018-03-06T02:15:46.570Z,2.10
2018-03-06T02:18:14.233Z,2.10
2018-03-06T02:20:41.846Z,2.10
2018-03-06T02:23:10.191Z,2.00
2018-03-06T02:25:38.070Z,2.00
2018-03-06T02:28:05.651Z,2.10
2018-03-06T02:30:33.334Z,2.10
2018-03-06T02:33:00.913Z,2.10
2018-03-06T02:35:28.560Z,2.10
2018-03-06T02:37:56.138Z,2.10
2018-03-06T02:40:23.782Z,2.10
2018-03-06T02:42:51.363Z,2.10
2018-03-06T02:45:18.989Z,2.10
2018-03-06T02:47:47.345Z,2.00
2018-03-06T02:50:14.926Z,2.00
2018-03-06T02:52:42.510Z,2.00
2018-03-06T02:55:10.094Z,2.00
2018-03-06T02:57:39.269Z,2.00
2018-03-06T03:00:06.854Z,1.90
2018-03-06T03:02:35.215Z,1.90
2018-03-06T03:05:03.357Z,1.90
2018-03-06T03:07:31.716Z,1.80
2018-03-06T03:09:59.304Z,1.80
2018-03-06T03:12:26.890Z,1.80
2018-03-06T03:14:55.279Z,1.60
2018-03-06T03:17:23.658Z,1.60
2018-03-06T03:19:51.303Z,1.50
2018-03-06T03:22:19.590Z,1.50
2018-03-06T03:24:47.215Z,1.50
2018-03-06T03:27:15.663Z,1.50
2018-03-06T03:29:43.273Z,1.50
2018-03-06T03:32:10.989Z,1.50
2018-03-06T03:34:38.602Z,1.50
2018-03-06T03:37:06.199Z,1.50
2018-03-06T03:39:34.583Z,1.50
2018-03-06T03:42:02.996Z,1.60
2018-03-06T03:44:30.576Z,1.50
2018-03-06T03:46:58.906Z,1.60
2018-03-06T03:49:26.487Z,1.50
2018-03-06T03:51:54.073Z,1.60
2018-03-06T03:54:21.653Z,1.60
2018-03-06T03:56:49.230Z,1.60
2018-03-06T03:59:17.609Z,1.60
2018-03-06T04:01:45.277Z,1.50
2018-03-06T04:04:12.905Z,1.60
2018-03-06T04:06:40.585Z,1.50
2018-03-06T04:09:08.216Z,1.60
2018-03-06T04:11:35.815Z,1.60
2018-03-06T04:14:03.413Z,1.60
2018-03-06T04:16:31.009Z,1.70
2018-03-06T04:18:58.595Z,1.70
2018-03-06T04:21:26.253Z,1.70
2018-03-06T04:23:53.845Z,1.70
2018-03-06T04:26:21.445Z,1.70
2018-03-06T04:28:49.108Z,1.60
2018-03-06T04:31:16.722Z,1.60
2018-03-06T04:33:44.322Z,1.60
2018-03-06T04:36:11.920Z,1.60
2018-03-06T04:38:39.660Z,1.60
2018-03-06T04:41:07.261Z,1.50
2018-03-06T04:43:34.863Z,1.60
2018-03-06T04:46:02.446Z,1.50
2018-03-06T04:48:30.014Z,1.50
2018-03-06T04:50:57.602Z,1.50
2018-03-06T04:53:25.189Z,1.50
2018-03-06T04:55:52.818Z,1.50
2018-03-06T04:58:20.429Z,1.50
2018-03-06T05:00:48.011Z,1.50
2018-03-06T05:03:15.634Z,1.50
2018-03-06T05:05:43.283Z,1.50
2018-03-06T05:08:10.903Z,1.50
2018-03-06T05:10:38.679Z,1.50
2018-03-06T05:13:06.271Z,1.50
2018-03-06T05:15:33.864Z,1.40
2018-03-06T05:18:01.454Z,1.40
2018-03-06T05:20:29.046Z,1.40
2018-03-06T05:22:56.671Z,1.40
2018-03-06T05:25:24.241Z,1.40
2018-03-06T05:27:51.912Z,1.40
2018-03-06T05:30:19.489Z,1.40
2018-03-06T05:32:47.071Z,1.40
2018-03-06T05:35:14.669Z,1.40
2018-03-06T05:37:43.080Z,1.30
2018-03-06T05:40:10.685Z,1.30
2018-03-06T05:42:38.292Z,1.30
2018-03-06T05:45:05.862Z,1.20
2018-03-06T05:47:33.471Z,1.20
2018-03-06T05:50:02.058Z,1.20
2018-03-06T05:52:30.476Z,1.10
2018-03-06T05:54:58.072Z,1.10
2018-03-06T05:57:25.719Z,1.10
2018-03-06T05:59:53.293Z,1.10
2018-03-06T06:02:20.890Z,1.10
2018-03-06T06:04:48.567Z,1.10
2018-03-06T06:07:16.197Z,1.10
2018-03-06T06:09:43.809Z,1.10
2018-03-06T06:12:11.416Z,1.00
2018-03-06T06:14:39.210Z,1.00
2018-03-06T06:17:06.808Z,0.90
2018-03-06T06:19:35.194Z,0.80
2018-03-06T06:22:03.560Z,0.90
2018-03-06T06:24:31.170Z,0.80
2018-03-06T06:26:58.768Z,0.80
2018-03-06T06:29:26.362Z,0.80
2018-03-06T06:31:54.048Z,0.80
2018-03-06T06:34:22.469Z,0.90
2018-03-06T06:36:50.819Z,0.90
2018-03-06T06:39:18.456Z,0.90
2018-03-06T06:41:46.070Z,1.00
2018-03-06T06:44:14.477Z,1.00
2018-03-06T06:46:42.911Z,1.10
2018-03-06T06:49:11.266Z,1.20
2018-03-06T06:51:39.614Z,1.20
2018-03-06T06:54:07.194Z,1.10
2018-03-06T06:56:34.765Z,1.20
2018-03-06T06:59:02.373Z,1.20
2018-03-06T07:01:30.016Z,1.30
2018-03-06T07:03:57.579Z,1.30
2018-03-06T07:06:25.173Z,1.30
2018-03-06T07:08:52.835Z,1.30
2018-03-06T07:11:20.563Z,1.40
2018-03-06T07:13:48.167Z,1.40
2018-03-06T07:16:15.780Z,1.40
2018-03-06T07:18:43.394Z,1.40
2018-03-06T07:21:11.009Z,1.40
2018-03-06T07:23:39.152Z,1.40
2018-03-06T07:26:06.740Z,1.30
2018-03-06T07:28:34.429Z,1.30
2018-03-06T07:31:02.010Z,1.30
2018-03-06T07:33:29.663Z,1.30
2018-03-06T07:35:57.251Z,1.30
2018-03-06T07:38:24.871Z,1.40
2018-03-06T07:40:53.229Z,1.50
2018-03-06T07:43:21.650Z,1.50
2018-03-06T07:45:49.262Z,1.50
2018-03-06T07:48:16.921Z,1.50
2018-03-06T07:50:44.528Z,1.60
2018-03-06T07:53:12.144Z,1.70
2018-03-06T07:55:39.732Z,1.80
2018-03-06T07:58:08.115Z,1.90
2018-03-06T08:00:37.263Z,2.00
2018-03-06T08:03:05.686Z,2.00
2018-03-06T08:05:33.289Z,2.10
2018-03-06T08:08:00.938Z,2.20
2018-03-06T08:10:28.526Z,2.20
2018-03-06T08:12:56.157Z,2.30
2018-03-06T08:15:23.757Z,2.30
2018-03-06T08:17:51.388Z,2.30
2018-03-06T08:20:19.042Z,2.30
2018-03-06T08:22:46.637Z,2.30
2018-03-06T08:25:14.254Z,2.40
2018-03-06T08:27:41.828Z,2.40
2018-03-06T08:30:10.208Z,2.60
2018-03-06T08:32:39.009Z,2.70
2018-03-06T08:35:07.390Z,2.60
2018-03-06T08:37:34.941Z,2.80
2018-03-06T08:40:02.545Z,2.90
2018-03-06T08:42:30.134Z,3.00
2018-03-06T08:44:58.543Z,3.10
2018-03-06T08:47:27.454Z,3.20
2018-03-06T08:49:55.050Z,3.20
2018-03-06T08:52:59.130Z,3.30
2018-03-06T08:55:28.723Z,3.50
2018-03-06T08:57:58.063Z,3.60
2018-03-06T09:00:26.475Z,3.70
2018-03-06T09:02:54.934Z,3.80
2018-03-06T09:05:23.581Z,3.70
2018-03-06T09:07:51.171Z,3.80
2018-03-06T09:10:18.750Z,3.90
2018-03-06T09:12:46.360Z,4.00
2018-03-06T09:15:13.935Z,4.00
2018-03-06T09:17:42.185Z,4.10
2018-03-06T09:20:11.115Z,4.20
2018-03-06T09:22:39.902Z,4.10
2018-03-06T09:25:08.379Z,4.30
2018-03-06T09:27:37.669Z,4.40
2018-03-06T09:30:06.019Z,4.50
2018-03-06T09:32:33.931Z,4.60
2018-03-06T09:35:06.846Z,4.70
2018-03-06T09:37:35.224Z,4.80
2018-03-06T09:40:05.328Z,5.00
2018-03-06T09:42:34.602Z,5.20
2018-03-06T09:45:03.406Z,5.50
2018-03-06T09:47:32.106Z,5.40
2018-03-06T09:50:01.914Z,5.60
2018-03-06T09:52:30.012Z,5.70
2018-03-06T09:54:57.831Z,5.80
2018-03-06T09:57:25.517Z,5.90
2018-03-06T09:59:53.404Z,5.90
2018-03-06T10:02:22.877Z,6.00
2018-03-06T10:04:50.937Z,6.10
2018-03-06T10:07:18.554Z,6.30
2018-03-06T10:09:47.027Z,6.50
2018-03-06T10:12:15.451Z,6.40
2018-03-06T10:14:43.871Z,6.60
2018-03-06T10:17:11.527Z,6.50
2018-03-06T10:19:39.469Z,6.70
2018-03-06T10:22:07.162Z,6.80
2018-03-06T10:24:35.567Z,6.90
2018-03-06T10:27:03.975Z,7.00
2018-03-06T10:29:31.635Z,7.00
2018-03-06T10:31:59.358Z,7.10
2018-03-06T10:34:27.002Z,7.20
2018-03-06T10:36:54.621Z,7.30
2018-03-06T10:39:23.070Z,7.50
2018-03-06T10:41:50.708Z,7.40
2018-03-06T10:44:19.129Z,7.70
2018-03-06T10:46:46.756Z,7.60
2018-03-06T10:49:16.064Z,7.80
2018-03-06T10:51:43.663Z,7.80
2018-03-06T10:54:12.055Z,8.10
2018-03-06T10:56:40.424Z,8.10
2018-03-06T10:59:08.046Z,8.10
2018-03-06T11:01:36.700Z,8.20
2018-03-06T11:04:04.361Z,8.30
2018-03-06T11:06:31.960Z,8.40
2018-03-06T11:09:00.334Z,8.60
2018-03-06T11:11:27.921Z,8.60
2018-03-06T11:13:56.260Z,8.80
2018-03-06T11:16:23.845Z,8.70
2018-03-06T11:18:51.459Z,8.90
2018-03-06T11:21:19.135Z,9.00
2018-03-06T11:23:47.584Z,9.10
2018-03-06T11:26:15.166Z,9.10
2018-03-06T11:28:42.771Z,9.20
2018-03-06T11:31:11.175Z,9.40
2018-03-06T11:33:39.542Z,9.40
2018-03-06T11:36:07.126Z,9.40
2018-03-06T11:38:34.746Z,9.50
2018-03-06T11:41:03.073Z,9.70
2018-03-06T11:43:30.772Z,9.60
2018-03-06T11:45:59.165Z,9.80
2018-03-06T11:48:26.777Z,9.80
2018-03-06T11:50:54.742Z,9.90
2018-03-06T11:53:22.371Z,9.90
2018-03-06T11:55:49.936Z,10.00
2018-03-06T11:58:18.304Z,10.20
2018-03-06T12:00:45.881Z,10.20
2018-03-06T12:03:13.494Z,10.30
2018-03-06T12:05:41.134Z,10.40
2018-03-06T12:08:08.804Z,10.40
2018-03-06T12:10:36.394Z,10.50
2018-03-06T12:13:04.802Z,10.60
2018-03-06T12:15:33.167Z,10.70
2018-03-06T12:18:00.908Z,10.60
2018-03-06T12:20:28.481Z,10.70
2018-03-06T12:22:56.056Z,10.80
2018-03-06T12:25:23.682Z,10.90
2018-03-06T12:27:52.047Z,11.10
2018-03-06T12:30:19.652Z,11.00
2018-03-06T12:32:48.011Z,11.20
2018-03-06T12:35:15.686Z,11.10
2018-03-06T12:37:43.351Z,11.30
2018-03-06T12:40:10.937Z,11.40
2018-03-06T12:42:38.629Z,11.40
2018-03-06T12:45:06.987Z,11.50
2018-03-06T12:47:34.609Z,11.50
2018-03-06T12:50:02.201Z,11.60
2018-03-06T12:52:29.832Z,11.60
2018-03-06T12:54:58.379Z,11.70
2018-03-06T12:57:25.892Z,11.70
2018-03-06T12:59:53.526Z,11.80
2018-03-06T13:02:21.120Z,11.90
2018-03-06T13:04:50.327Z,12.00
2018-03-06T13:07:17.964Z,12.00
2018-03-06T13:09:45.630Z,12.10
2018-03-06T13:12:13.249Z,12.20
2018-03-06T13:14:40.867Z,12.20
2018-03-06T13:17:08.474Z,12.20
2018-03-06T13:19:36.116Z,12.30
2018-03-06T13:22:03.723Z,12.40
2018-03-06T13:24:31.357Z,12.50
2018-03-06T13:26:59.691Z,12.60
2018-03-06T13:29:27.336Z,12.60
2018-03-06T13:31:54.902Z,12.70
2018-03-06T13:34:22.485Z,12.70
2018-03-06T13:36:50.150Z,12.80
2018-03-06T13:39:17.774Z,12.80
2018-03-06T13:41:45.412Z,12.80
2018-03-06T13:44:12.983Z,12.80
2018-03-06T13:46:40.560Z,12.80
2018-03-06T13:49:08.164Z,12.80
2018-03-06T13:51:35.789Z,12.80
2018-03-06T13:54:03.559Z,12.80
2018-03-06T13:56:31.216Z,12.80
2018-03-06T13:59:00.213Z,12.80
2018-03-06T14:01:28.616Z,12.80
2018-03-06T14:03:57.044Z,12.80
2018-03-06T14:06:24.707Z,12.70
2018-03-06T14:08:52.908Z,12.80
2018-03-06T14:11:22.212Z,12.80
2018-03-06T14:13:49.783Z,12.80
2018-03-06T14:16:17.423Z,12.80
2018-03-06T14:18:45.025Z,12.80
2018-03-06T14:21:12.646Z,12.80
2018-03-06T14:23:41.076Z,12.80
2018-03-06T14:26:08.665Z,12.80
2018-03-06T14:28:36.240Z,12.80
2018-03-06T14:31:03.869Z,12.80
2018-03-06T14:33:32.244Z,12.80
2018-03-06T14:36:01.608Z,12.80
2018-03-06T14:38:29.166Z,12.80
2018-03-06T14:40:58.205Z,12.90
2018-03-06T14:43:25.810Z,12.80
2018-03-06T14:45:53.421Z,12.80
2018-03-06T14:48:21.028Z,12.80
2018-03-06T14:50:48.603Z,12.80
2018-03-06T14:53:16.886Z,12.80
2018-03-06T14:55:44.475Z,12.80
2018-03-06T14:58:12.124Z,12.70
2018-03-06T15:00:39.825Z,12.70
2018-03-06T15:03:07.626Z,12.70
2018-03-06T15:05:35.199Z,12.60
2018-03-06T15:08:02.780Z,12.60
2018-03-06T15:10:31.141Z,12.50
2018-03-06T15:12:58.716Z,12.50
2018-03-06T15:15:26.338Z,12.50
2018-03-06T15:17:53.935Z,12.50
2018-03-06T15:20:22.309Z,12.50
2018-03-06T15:22:49.890Z,12.50
2018-03-06T15:25:17.540Z,12.40
2018-03-06T15:27:45.148Z,12.40
2018-03-06T15:30:12.784Z,12.30
2018-03-06T15:32:40.480Z,12.30
2018-03-06T15:35:08.101Z,12.30
2018-03-06T15:37:35.686Z,12.20
2018-03-06T15:40:04.038Z,12.10
2018-03-06T15:42:31.635Z,12.10
2018-03-06T15:44:59.215Z,12.10
2018-03-06T15:47:26.812Z,12.10
2018-03-06T15:49:54.396Z,12.00
2018-03-06T15:52:22.030Z,12.00
2018-03-06T15:54:49.640Z,11.90
2018-03-06T15:57:18.073Z,11.90
2018-03-06T15:59:45.709Z,11.90
2018-03-06T16:02:13.323Z,11.90
2018-03-06T16:04:40.959Z,11.80
2018-03-06T16:07:08.531Z,11.80
2018-03-06T16:09:36.150Z,11.80
2018-03-06T16:12:03.757Z,11.80
2018-03-06T16:14:32.168Z,11.70
2018-03-06T16:16:59.750Z,11.60
2018-03-06T16:19:27.346Z,11.60
2018-03-06T16:21:54.946Z,11.60
2018-03-06T16:24:22.525Z,11.60
2018-03-06T16:26:50.869Z,11.50
2018-03-06T16:29:18.440Z,11.40
2018-03-06T16:31:46.088Z,11.40
2018-03-06T16:34:13.684Z,11.30
2018-03-06T16:36:41.297Z,11.20
2018-03-06T16:39:09.686Z,11.10
2018-03-06T16:41:38.480Z,11.00
2018-03-06T16:44:06.084Z,11.00
2018-03-06T16:46:33.698Z,10.90
2018-03-06T16:49:01.293Z,10.80
2018-03-06T16:51:28.890Z,10.70
2018-03-06T16:53:57.241Z,10.50
2018-03-06T16:56:25.611Z,10.50
2018-03-06T16:58:53.189Z,10.40
2018-03-06T17:01:20.785Z,10.50
2018-03-06T17:03:48.369Z,10.40
2018-03-06T17:06:16.035Z,10.30
2018-03-06T17:08:43.692Z,10.20
2018-03-06T17:11:11.371Z,10.10
2018-03-06T17:13:39.194Z,10.10
2018-03-06T17:16:06.769Z,10.00
2018-03-06T17:18:34.371Z,9.90
2018-03-06T17:21:01.938Z,9.80
2018-03-06T17:23:29.509Z,9.80
2018-03-06T17:25:57.086Z,9.60
2018-03-06T17:28:24.662Z,9.60
2018-03-06T17:30:52.228Z,9.60
2018-03-06T17:33:19.829Z,9.60
2018-03-06T17:35:47.418Z,9.50
2018-03-06T17:38:15.011Z,9.50
2018-03-06T17:40:43.344Z,9.40
2018-03-06T17:43:10.911Z,9.30
2018-03-06T17:45:39.505Z,9.30
2018-03-06T17:48:07.071Z,9.30
2018-03-06T17:50:34.623Z,9.30
2018-03-06T17:53:02.195Z,9.30
2018-03-06T17:55:29.776Z,9.20
2018-03-06T17:57:57.342Z,9.20
2018-03-06T18:00:24.915Z,9.20
2018-03-06T18:02:52.491Z,9.20
2018-03-06T18:05:20.075Z,9.20
2018-03-06T18:07:47.646Z,9.10
2018-03-06T18:10:15.237Z,9.10
2018-03-06T18:12:42.804Z,9.10
2018-03-06T18:15:10.361Z,9.10
2018-03-06T18:17:38.978Z,9.00
2018-03-06T18:20:07.319Z,9.00
2018-03-06T18:22:35.653Z,8.90
2018-03-06T18:25:03.227Z,8.90
2018-03-06T18:27:30.779Z,8.90
2018-03-06T18:29:58.365Z,8.90
2018-03-06T18:32:25.924Z,8.80
2018-03-06T18:34:53.478Z,8.80
2018-03-06T18:37:21.113Z,8.70
2018-03-06T18:39:49.541Z,8.70
2018-03-06T18:42:17.115Z,8.60
2018-03-06T18:44:44.691Z,8.60
2018-03-06T18:47:12.312Z,8.60
2018-03-06T18:50:01.587Z,8.50
2018-03-06T18:52:29.164Z,8.50
2018-03-06T18:54:56.758Z,8.50
2018-03-06T18:57:24.375Z,8.40
2018-03-06T19:00:03.880Z,8.40
2018-03-06T19:02:43.294Z,8.30
2018-03-06T19:05:22.712Z,8.20
2018-03-06T19:07:51.060Z,8.10
2018-03-06T19:10:18.648Z,8.10
2018-03-06T19:12:47.032Z,8.00
2018-03-06T19:15:14.600Z,8.00
2018-03-06T19:17:42.208Z,7.90
2018-03-06T19:20:10.574Z,7.70
2018-03-06T19:22:38.936Z,7.70
2018-03-06T19:25:06.568Z,7.60
2018-03-06T19:27:34.120Z,7.50
2018-03-06T19:30:01.694Z,7.40
2018-03-06T19:32:29.254Z,7.40
2018-03-06T19:34:56.809Z,7.40
2018-03-06T19:37:24.380Z,7.40
2018-03-06T19:39:51.959Z,7.40
2018-03-06T19:42:19.535Z,7.40
2018-03-06T19:44:47.104Z,7.20
2018-03-06T19:47:14.708Z,7.20
2018-03-06T19:49:42.300Z,7.20
2018-03-06T19:52:10.645Z,7.30
2018-03-06T19:54:38.466Z,7.20
2018-03-06T19:57:06.808Z,7.40
2018-03-06T19:59:34.407Z,7.30
2018-03-06T20:02:01.967Z,7.30
2018-03-06T20:04:29.551Z,7.30
2018-03-06T20:06:57.130Z,7.30
2018-03-06T20:09:24.735Z,7.20
2018-03-06T20:11:53.085Z,7.00
2018-03-06T20:14:26.222Z,7.00
2018-03-06T20:16:54.587Z,7.00
2018-03-06T20:19:41.845Z,7.00
2018-03-06T20:22:10.181Z,7.00
2018-03-06T20:24:43.317Z,7.00
2018-03-06T20:27:10.875Z,7.00
2018-03-06T20:29:38.616Z,7.00
2018-03-06T20:32:11.755Z,7.00
2018-03-06T20:34:39.565Z,7.00
2018-03-06T20:37:07.918Z,7.00
2018-03-06T20:39:41.136Z,6.90
2018-03-06T20:42:08.707Z,6.90
2018-03-06T20:44:36.332Z,6.90
2018-03-06T20:47:09.640Z,6.90
2018-03-06T20:49:37.276Z,6.90
2018-03-06T20:52:04.866Z,6.90
2018-03-06T20:54:39.012Z,7.00
2018-03-06T20:57:06.612Z,6.90
2018-03-06T20:59:34.224Z,7.00
2018-03-06T21:02:01.796Z,7.00
2018-03-06T21:04:30.184Z,7.00
2018-03-06T21:06:58.531Z,7.00
2018-03-06T21:09:26.102Z,7.00
2018-03-06T21:11:53.666Z,7.00
2018-03-06T21:14:21.535Z,7.00
2018-03-06T21:16:49.106Z,7.00
2018-03-06T21:19:16.716Z,6.90
2018-03-06T21:21:45.148Z,6.90
2018-03-06T21:24:13.618Z,7.00
2018-03-06T21:26:41.617Z,6.90
2018-03-06T21:29:09.561Z,7.00
2018-03-06T21:31:38.726Z,7.00
2018-03-06T21:34:06.418Z,7.00
2018-03-06T21:36:34.317Z,7.00
2018-03-06T21:39:01.956Z,7.00
2018-03-06T21:41:29.599Z,7.00
2018-03-06T21:43:57.733Z,7.00
2018-03-06T21:46:26.138Z,6.80
2018-03-06T21:48:53.772Z,6.70
2018-03-06T21:51:22.455Z,6.70
2018-03-06T21:53:50.807Z,6.60
2018-03-06T21:56:19.223Z,6.60
2018-03-06T21:58:46.815Z,6.60
2018-03-06T22:01:15.376Z,6.60
2018-03-06T22:03:43.154Z,6.60
2018-03-06T22:06:11.014Z,6.60
2018-03-06T22:08:38.842Z,6.50
2018-03-06T22:11:06.602Z,6.60
2018-03-06T22:13:34.194Z,6.50
2018-03-06T22:16:02.542Z,6.20
2018-03-06T22:18:30.908Z,6.00
2018-03-06T22:20:59.161Z,6.00
2018-03-06T22:23:28.375Z,6.20
2018-03-06T22:25:56.586Z,6.10
2018-03-06T22:28:24.186Z,6.20
2018-03-06T22:30:51.768Z,6.30
2018-03-06T22:33:19.341Z,6.30
2018-03-06T22:35:46.927Z,6.30
2018-03-06T22:38:14.716Z,6.40
2018-03-06T22:40:43.130Z,6.40
2018-03-06T22:43:10.724Z,6.40
2018-03-06T22:45:38.514Z,6.40
2018-03-06T22:48:06.075Z,6.40
2018-03-06T22:50:33.631Z,6.40
2018-03-06T22:53:01.216Z,6.40
2018-03-06T22:55:28.791Z,6.30
2018-03-06T22:57:56.417Z,6.30
2018-03-06T23:00:24.755Z,6.30
2018-03-06T23:02:52.322Z,6.20
2018-03-06T23:05:19.959Z,6.30
2018-03-06T23:07:48.300Z,6.40
2018-03-06T23:10:16.069Z,6.30
2018-03-06T23:12:44.491Z,6.40
2018-03-06T23:15:12.066Z,6.30
2018-03-06T23:17:39.814Z,6.40
2018-03-06T23:20:07.396Z,6.40
2018-03-06T23:22:34.987Z,6.40
2018-03-06T23:25:02.583Z,6.30
2018-03-06T23:27:31.729Z,6.40
2018-03-06T23:29:59.311Z,6.30
2018-03-06T23:32:26.889Z,6.40
2018-03-06T23:34:54.489Z,6.40
2018-03-06T23:37:22.048Z,6.40
2018-03-06T23:39:50.399Z,6.30
2018-03-06T23:42:17.964Z,6.20
2018-03-06T23:44:45.564Z,6.30
2018-03-06T23:47:13.131Z,6.30
2018-03-06T23:49:40.712Z,6.20
2018-03-06T23:52:08.302Z,6.20
2018-03-06T23:54:35.868Z,6.20
2018-03-06T23:57:03.605Z,6.00
2018-03-06T23:59:31.174Z,6.00
